Time;durP1;ratioP1;P1;durP2;ratioP2;P2;SDS_P1;SDS_P2;PMS_P1;PMS_P2;Temp;Humidity;BMP_temperature;BMP_pressure;BME280_temperature;BME280_humidity;BME280_pressure;Samples;Min_cycle;Max_cycle;Signal;HPM_P1;HPM_P2
2023/10/20 00:00:55;;;;;;;7.28;3.70;;;;;;;8.29;90.27;98802.38;5049147;28;20276;-47
2023/10/20 00:03:21;;;;;;;9.32;3.20;;;;;;;8.11;90.62;98766.03;5067233;28;20587;-44
2023/10/20 00:05:47;;;;;;;4.90;3.10;;;;;;;8.07;90.86;98778.22;5066501;28;20147;-44
2023/10/20 00:08:13;;;;;;;3.53;2.58;;;;;;;8.24;90.95;98806.06;5068382;28;20029;-45
2023/10/20 00:10:40;;;;;;;3.80;2.40;;;;;;;8.26;91.25;98812.03;5049285;28;20041;-45
2023/10/20 00:13:06;;;;;;;4.75;2.90;;;;;;;8.28;91.20;98810.22;5067806;28;20037;-45
2023/10/20 00:15:33;;;;;;;5.47;3.13;;;;;;;8.25;90.80;98808.59;5067472;28;20040;-47
2023/10/20 00:17:59;;;;;;;8.25;4.35;;;;;;;8.22;90.92;98813.03;5082699;28;20040;-45
2023/10/20 00:20:25;;;;;;;11.55;6.30;;;;;;;8.23;90.82;98815.56;5067060;28;20484;-45
2023/10/20 00:22:51;;;;;;;11.73;5.70;;;;;;;8.08;90.45;98780.78;5062645;28;20082;-44
2023/10/20 00:25:17;;;;;;;12.40;6.60;;;;;;;8.27;90.86;98811.94;5066346;28;20502;-43
2023/10/20 00:27:45;;;;;;;13.02;6.63;;;;;;;8.30;90.84;98811.88;5067697;28;20059;-45
2023/10/20 00:30:11;;;;;;;10.90;6.75;;;;;;;8.32;90.83;98811.84;5067530;28;20445;-43
2023/10/20 00:32:40;;;;;;;14.82;6.50;;;;;;;8.37;90.65;98809.91;5066673;28;20072;-45
2023/10/20 00:35:09;;;;;;;12.60;6.50;;;;;;;8.36;90.58;98815.97;5060697;28;20048;-44
2023/10/20 00:37:35;;;;;;;11.45;6.03;;;;;;;8.41;90.77;98822.66;5063667;28;20048;-45
2023/10/20 00:40:07;;;;;;;11.55;6.05;;;;;;;8.43;90.38;98823.44;5044269;28;20044;-46
2023/10/20 00:42:34;;;;;;;11.15;6.32;;;;;;;8.43;90.35;98820.00;5062386;28;20112;-43
2023/10/20 00:45:00;;;;;;;11.25;5.40;;;;;;;8.40;90.21;98820.13;5066752;28;20055;-46
2023/10/20 00:47:27;;;;;;;11.82;5.03;;;;;;;8.41;90.15;98817.50;5063420;28;20094;-43
2023/10/20 00:49:53;;;;;;;10.68;5.55;;;;;;;8.42;89.92;98821.78;5060235;28;20048;-44
2023/10/20 00:52:20;;;;;;;8.52;5.05;;;;;;;8.41;89.40;98821.81;5063085;28;20074;-47
2023/10/20 00:54:47;;;;;;;9.82;5.38;;;;;;;8.37;89.75;98812.50;5064242;28;20048;-44
2023/10/20 00:57:16;;;;;;;10.52;4.97;;;;;;;8.32;90.10;98819.59;5065409;28;20032;-42
2023/10/20 00:59:42;;;;;;;9.60;5.03;;;;;;;8.29;90.38;98819.66;5064097;28;20040;-44
2023/10/20 01:02:09;;;;;;;8.45;5.03;;;;;;;8.08;90.56;98792.88;5064666;28;20047;-45
2023/10/20 01:04:35;;;;;;;12.43;4.85;;;;;;;8.02;90.76;98780.16;5046407;28;20420;-47
2023/10/20 01:07:01;;;;;;;9.18;4.97;;;;;;;8.26;91.49;98825.84;5066316;28;20051;-45
2023/10/20 01:09:27;;;;;;;8.48;4.35;;;;;;;8.25;90.85;98826.72;5082439;28;20052;-45
2023/10/20 01:11:55;;;;;;;7.57;3.67;;;;;;;8.25;90.90;98820.69;5049180;28;20036;-45
2023/10/20 01:14:21;;;;;;;6.88;4.40;;;;;;;8.25;90.60;98823.28;5049087;28;20103;-46
2023/10/20 01:16:47;;;;;;;8.18;4.13;;;;;;;8.20;90.48;98822.63;5065195;28;20044;-45
2023/10/20 01:19:14;;;;;;;8.57;4.13;;;;;;;8.22;89.88;98826.81;5066878;28;20040;-45
2023/10/20 01:21:40;;;;;;;6.55;4.53;;;;;;;8.20;89.93;98822.63;5057021;28;20124;-47
2023/10/20 01:24:10;;;;;;;9.02;4.45;;;;;;;8.24;89.57;98834.53;5062268;28;20040;-44
2023/10/20 01:26:36;;;;;;;6.85;3.72;;;;;;;8.23;89.95;98835.44;5065912;28;20044;-44
2023/10/20 01:29:05;;;;;;;5.60;3.67;;;;;;;8.24;90.09;98835.38;5057332;28;20053;-44
2023/10/20 01:31:31;;;;;;;;;;;;;;;8.23;90.10;98831.09;5078744;28;20086;-46
2023/10/20 01:33:58;;;;;;;7.50;3.58;;;;;;;8.19;90.08;98821.78;5065249;28;20399;-44
2023/10/20 01:36:24;;;;;;;6.68;3.67;;;;;;;8.21;89.95;98826.91;5065535;28;20048;-46
2023/10/20 01:38:50;;;;;;;6.53;4.15;;;;;;;8.22;89.95;98824.25;5082710;28;20067;-47
2023/10/20 01:41:16;;;;;;;6.85;3.85;;;;;;;8.09;90.18;98803.16;5051720;28;20500;-46
2023/10/20 01:43:42;;;;;;;7.72;4.45;;;;;;;8.26;90.24;98824.97;5067369;28;20048;-45
2023/10/20 01:46:08;;;;;;;9.18;4.72;;;;;;;8.25;90.45;98829.31;5068527;28;20150;-44
2023/10/20 01:48:35;;;;;;;8.93;5.10;;;;;;;8.24;90.44;98825.03;5068892;28;20210;-43
2023/10/20 01:51:01;;;;;;;10.07;4.70;;;;;;;8.25;90.00;98824.13;5069294;28;20040;-45
2023/10/20 01:53:27;;;;;;;9.07;5.00;;;;;;;8.12;90.32;98807.38;5066070;28;20044;-45
2023/10/20 01:55:53;;;;;;;9.45;4.55;;;;;;;8.14;90.17;98807.31;5069210;28;20103;-44
2023/10/20 01:58:20;;;;;;;7.00;4.03;;;;;;;8.33;89.90;98837.66;5052524;28;20059;-43
2023/10/20 02:00:50;;;;;;;8.77;4.38;;;;;;;8.20;90.03;98812.28;5069254;28;20036;-43
2023/10/20 02:03:17;;;;;;;8.05;4.20;;;;;;;8.16;89.57;98802.94;5068832;28;20439;-43
2023/10/20 02:05:43;;;;;;;7.05;4.30;;;;;;;8.35;89.65;98835.84;5062928;28;20032;-48
2023/10/20 02:08:10;;;;;;;7.85;4.90;;;;;;;8.35;89.82;98843.63;5069052;28;20097;-46
2023/10/20 02:10:37;;;;;;;8.80;4.18;;;;;;;8.36;89.50;98842.72;5069281;28;20053;-44
2023/10/20 02:13:03;;;;;;;7.13;4.10;;;;;;;8.35;89.14;98848.81;5066557;28;20041;-42
2023/10/20 02:15:30;;;;;;;8.20;4.43;;;;;;;8.31;88.89;98843.81;5041365;28;20593;-43
2023/10/20 02:17:57;;;;;;;7.72;4.13;;;;;;;8.36;88.34;98854.81;5045145;28;20045;-43
2023/10/20 02:20:43;;;;;;;7.82;3.63;;;;;;;8.32;88.08;98850.69;5049430;28;20037;-43
2023/10/20 02:23:11;;;;;;;5.85;3.25;;;;;;;8.08;88.24;98826.53;5051409;28;20136;-43
2023/10/20 02:25:37;;;;;;;5.60;3.40;;;;;;;8.03;87.71;98823.25;5083168;28;20036;-43
2023/10/20 02:28:03;;;;;;;6.95;3.20;;;;;;;8.17;87.72;98852.06;5068511;28;20504;-46
2023/10/20 02:30:33;;;;;;;5.45;3.20;;;;;;;8.09;87.37;98848.91;5068582;28;20157;-44
2023/10/20 02:33:01;;;;;;;4.80;3.00;;;;;;;7.91;87.29;98824.56;5060844;28;20511;-45
2023/10/20 02:35:28;;;;;;;4.20;2.72;;;;;;;7.83;87.11;98823.16;5067705;28;20574;-44
2023/10/20 02:37:54;;;;;;;3.67;2.45;;;;;;;7.98;87.55;98858.81;5068536;28;20063;-44
2023/10/20 02:40:20;;;;;;;6.22;2.80;;;;;;;7.90;87.49;98846.16;5058336;28;20370;-46
2023/10/20 02:42:46;;;;;;;5.72;2.75;;;;;;;7.92;87.74;98859.03;5069002;28;20051;-46
2023/10/20 02:45:12;;;;;;;4.40;2.53;;;;;;;7.90;88.13;98853.91;5044215;28;20479;-42
2023/10/20 02:47:38;;;;;;;3.78;2.35;;;;;;;7.88;88.38;98844.53;5069332;28;20040;-47
2023/10/20 02:50:06;;;;;;;2.65;1.92;;;;;;;7.85;88.13;98853.25;5047362;28;20049;-44
2023/10/20 02:52:32;;;;;;;4.00;2.30;;;;;;;7.80;88.33;98844.00;5061762;28;20078;-45
2023/10/20 02:54:58;;;;;;;3.20;2.15;;;;;;;7.65;88.05;98809.16;5069543;28;20429;-47
2023/10/20 02:57:25;;;;;;;3.30;1.92;;;;;;;7.68;87.80;98822.00;5068024;28;20066;-44
2023/10/20 02:59:51;;;;;;;5.57;2.17;;;;;;;7.86;87.88;98842.00;5084688;28;20044;-44
2023/10/20 03:02:18;;;;;;;3.33;1.98;;;;;;;7.71;87.92;98824.47;5069290;28;20044;-46
2023/10/20 03:04:44;;;;;;;2.92;1.90;;;;;;;7.85;87.65;98848.06;5068622;28;20131;-46
2023/10/20 03:07:10;;;;;;;4.82;2.30;;;;;;;7.89;87.36;98841.91;5054867;28;20174;-45
2023/10/20 03:09:36;;;;;;;3.85;2.13;;;;;;;7.84;87.08;98832.63;5068493;28;20052;-46
2023/10/20 03:12:02;;;;;;;6.40;2.38;;;;;;;7.95;87.47;98848.59;5066735;28;20036;-44
2023/10/20 03:14:30;;;;;;;3.42;1.85;;;;;;;7.96;87.87;98851.09;5066707;28;20040;-46
2023/10/20 03:16:56;;;;;;;4.95;1.60;;;;;;;7.95;87.67;98844.28;5050200;28;20576;-46
2023/10/20 03:19:22;;;;;;;4.13;1.80;;;;;;;7.98;87.27;98845.88;5033794;28;20048;-46
2023/10/20 03:21:49;;;;;;;2.40;1.67;;;;;;;7.95;86.87;98852.03;5050736;28;20092;-45
2023/10/20 03:24:14;;;;;;;3.80;1.77;;;;;;;7.94;86.57;98846.91;5067066;28;20047;-45
2023/10/20 03:26:42;;;;;;;4.63;2.47;;;;;;;7.95;86.20;98851.19;5064147;28;20040;-47
2023/10/20 03:29:09;;;;;;;3.85;1.75;;;;;;;7.93;86.24;98848.66;5034020;28;20036;-43
2023/10/20 03:31:35;;;;;;;3.45;2.25;;;;;;;7.81;86.29;98824.97;5067245;28;20851;-45
2023/10/20 03:34:01;;;;;;;2.33;1.50;;;;;;;7.90;86.21;98848.75;5066416;28;20461;-44
2023/10/20 03:36:27;;;;;;;2.35;1.48;;;;;;;7.93;86.34;98852.97;5068701;28;20074;-44
2023/10/20 03:38:53;;;;;;;2.92;1.60;;;;;;;7.92;86.37;98856.47;5067497;28;20056;-47
2023/10/20 03:41:19;;;;;;;2.35;1.23;;;;;;;7.92;86.12;98854.72;5050741;28;20040;-45
2023/10/20 03:43:45;;;;;;;3.05;1.80;;;;;;;7.91;85.88;98860.78;5066749;28;20036;-46
2023/10/20 03:46:13;;;;;;;3.60;1.98;;;;;;;7.91;86.02;98862.53;5069579;28;20420;-49
2023/10/20 03:48:41;;;;;;;2.70;1.65;;;;;;;7.90;86.19;98869.44;5066796;28;20576;-43
2023/10/20 03:51:12;;;;;;;3.55;1.92;;;;;;;7.87;85.90;98858.38;5050172;28;20037;-46
2023/10/20 03:53:54;;;;;;;3.10;1.75;;;;;;;7.57;85.95;98803.44;5053598;28;20052;-44
2023/10/20 03:56:22;;;;;;;2.67;1.73;;;;;;;7.81;85.88;98843.91;5079314;28;20127;-44
2023/10/20 03:58:48;;;;;;;3.40;2.10;;;;;;;7.95;86.19;98869.31;5063725;28;20569;-48
2023/10/20 04:01:15;;;;;;;2.90;1.92;;;;;;;7.96;86.19;98868.38;5066392;28;20039;-46
2023/10/20 04:03:44;;;;;;;2.92;1.60;;;;;;;7.96;86.26;98879.56;5047467;28;20044;-45
2023/10/20 04:06:11;;;;;;;8.60;3.35;;;;;;;7.85;86.40;98862.78;5066872;28;20036;-44
2023/10/20 04:08:37;;;;;;;4.15;2.22;;;;;;;8.00;86.29;98876.00;5068020;28;20044;-45
2023/10/20 04:11:03;;;;;;;4.80;2.30;;;;;;;7.97;86.77;98880.44;5066155;28;20040;-45
2023/10/20 04:13:31;;;;;;;4.22;2.20;;;;;;;7.92;87.59;98878.00;5064183;28;20036;-45
2023/10/20 04:15:58;;;;;;;4.32;2.20;;;;;;;7.90;88.54;98890.16;5067960;28;20051;-45
2023/10/20 04:18:24;;;;;;;2.80;1.83;;;;;;;7.87;89.04;98879.91;5067758;28;20483;-48
2023/10/20 04:20:50;;;;;;;6.57;2.47;;;;;;;7.89;89.19;98878.13;5065708;28;20567;-49
2023/10/20 04:23:16;;;;;;;4.28;2.47;;;;;;;7.66;90.18;98852.22;5066190;28;20051;-47
2023/10/20 04:25:52;;;;;;;5.07;2.85;;;;;;;7.86;90.10;98885.16;5062072;28;20119;-46
2023/10/20 04:29:02;;;;;;;7.65;3.45;;;;;;;7.85;90.76;98886.06;5051028;28;20139;-44
2023/10/20 04:45:16;;;;;;;5.13;2.88;;;;;;;7.88;91.19;98876.44;5060729;28;20053;-47
2023/10/20 04:48:13;;;;;;;6.82;3.15;;;;;;;7.78;90.55;98856.97;5051714;28;20037;-47
2023/10/20 04:58:44;;;;;;;5.60;3.00;;;;;;;8.12;90.35;98899.72;5066405;28;20044;-46
2023/10/20 05:04:06;;;;;;;5.13;2.80;;;;;;;8.16;89.90;98897.00;5077021;28;20067;-45
2023/10/20 05:06:43;;;;;;;6.07;2.78;;;;;;;8.16;89.87;98898.72;5063742;28;20040;-44
2023/10/20 05:09:13;;;;;;;4.57;3.00;;;;;;;8.15;90.13;98903.06;5048612;28;20029;-44
2023/10/20 05:11:40;;;;;;;5.13;3.30;;;;;;;8.16;89.84;98904.75;5057051;28;20043;-45
2023/10/20 05:14:06;;;;;;;8.07;3.88;;;;;;;8.18;89.80;98904.69;5064901;28;20048;-48
2023/10/20 05:16:34;;;;;;;6.18;3.58;;;;;;;8.23;90.01;98900.16;5064894;28;20499;-46
2023/10/20 05:19:04;;;;;;;6.85;3.70;;;;;;;8.26;89.38;98907.84;5065607;28;20036;-47
2023/10/20 05:21:33;;;;;;;7.22;3.83;;;;;;;8.29;89.43;98912.91;5064862;28;20123;-47
2023/10/20 05:24:04;;;;;;;7.32;3.80;;;;;;;8.26;89.88;98905.25;5066954;28;20060;-44
2023/10/20 05:26:31;;;;;;;12.30;5.85;;;;;;;8.13;89.31;98878.97;5040604;28;20056;-46
2023/10/20 05:28:58;;;;;;;10.07;5.50;;;;;;;8.31;89.65;98911.13;5065320;28;20040;-45
2023/10/20 05:31:25;;;;;;;7.60;4.53;;;;;;;8.30;89.45;98912.03;5046752;28;20131;-45
2023/10/20 05:33:52;;;;;;;7.93;4.20;;;;;;;8.31;88.93;98909.38;5065968;28;20047;-45
2023/10/20 05:36:18;;;;;;;8.32;3.85;;;;;;;8.30;88.74;98905.09;5064939;28;20105;-46
2023/10/20 05:38:44;;;;;;;9.43;4.72;;;;;;;8.38;88.55;98909.97;5067147;28;20041;-47
2023/10/20 05:41:11;;;;;;;6.80;4.13;;;;;;;8.35;87.64;98904.94;5064248;28;20036;-45
2023/10/20 05:43:38;;;;;;;10.32;4.85;;;;;;;8.31;87.75;98914.56;5053000;28;20139;-45
2023/10/20 05:46:04;;;;;;;8.45;4.38;;;;;;;8.35;87.54;98910.97;5065727;28;20036;-46
2023/10/20 05:48:31;;;;;;;9.90;5.80;;;;;;;8.28;87.63;98901.69;5067618;28;20041;-48
2023/10/20 05:50:57;;;;;;;7.25;4.32;;;;;;;8.24;87.11;98891.50;5063254;28;20076;-47
2023/10/20 05:53:25;;;;;;;11.55;5.53;;;;;;;8.37;87.33;98916.91;5066511;28;20094;-44
2023/10/20 05:55:51;;;;;;;7.07;4.00;;;;;;;8.40;86.83;98914.22;5065212;28;20047;-44
2023/10/20 05:58:17;;;;;;;6.45;3.92;;;;;;;8.38;86.67;98917.75;5063558;28;20397;-45
2023/10/20 06:00:43;;;;;;;5.85;4.00;;;;;;;8.41;85.90;98917.66;5065991;28;20043;-46
2023/10/20 06:03:09;;;;;;;6.07;3.45;;;;;;;8.43;86.11;98914.09;5063852;28;20036;-45
2023/10/20 06:05:35;;;;;;;7.30;3.92;;;;;;;8.49;85.23;98923.38;5063184;28;20507;-47
2023/10/20 06:08:02;;;;;;;8.90;5.47;;;;;;;8.54;84.74;98918.88;5064651;28;20091;-46
2023/10/20 06:10:29;;;;;;;6.50;4.00;;;;;;;8.53;84.95;98904.22;5047078;28;20076;-45
2023/10/20 06:12:55;;;;;;;7.93;4.82;;;;;;;8.76;84.09;98930.09;5063718;28;20091;-46
2023/10/20 06:15:21;;;;;;;7.22;3.95;;;;;;;8.84;83.67;98920.28;5047993;28;20480;-47
2023/10/20 06:17:49;;;;;;;5.72;3.83;;;;;;;8.69;83.12;98887.16;5064820;28;20044;-48
2023/10/20 06:20:15;;;;;;;5.97;3.80;;;;;;;8.90;82.25;98925.19;5065432;28;20032;-47
2023/10/20 06:22:42;;;;;;;6.70;3.67;;;;;;;8.74;82.08;98895.59;5062906;28;20044;-44
2023/10/20 06:25:14;;;;;;;3.97;2.58;;;;;;;8.76;81.03;98905.91;5048613;28;20512;-47
2023/10/20 06:27:42;;;;;;;4.55;2.70;;;;;;;8.89;80.53;98928.72;5069398;28;20050;-47
2023/10/20 06:30:21;;;;;;;6.68;3.58;;;;;;;8.88;80.33;98926.19;5069132;28;20499;-49
2023/10/20 06:35:42;;;;;;;4.18;2.17;;;;;;;8.69;79.10;98879.41;5076142;28;20110;-46
2023/10/20 06:40:34;;;;;;;4.65;2.55;;;;;;;8.89;79.06;98923.53;5068406;28;20094;-46
2023/10/20 06:43:00;;;;;;;5.32;2.63;;;;;;;8.55;79.28;98873.06;5068647;28;20048;-47
2023/10/20 06:45:26;;;;;;;4.70;2.80;;;;;;;8.77;79.68;98933.53;5080283;28;20036;-46
2023/10/20 06:47:52;;;;;;;4.78;2.67;;;;;;;8.69;80.10;98936.41;5052181;28;20051;-45
2023/10/20 06:50:18;;;;;;;7.82;3.00;;;;;;;8.61;79.89;98920.31;5050768;28;20515;-47
2023/10/20 06:52:44;;;;;;;4.38;2.70;;;;;;;8.61;80.17;98915.16;5068560;28;20028;-44
2023/10/20 06:55:09;;;;;;;6.60;3.08;;;;;;;8.74;79.65;98918.94;5069095;28;20040;-47
2023/10/20 06:57:35;;;;;;;3.60;2.58;;;;;;;8.83;79.83;98936.72;5069022;28;20036;-44
2023/10/20 07:00:06;;;;;;;6.75;2.85;;;;;;;8.83;79.40;98939.31;5067106;28;20040;-47
2023/10/20 07:02:32;;;;;;;5.22;2.85;;;;;;;8.65;79.46;98902.91;5067539;28;20036;-45
2023/10/20 07:04:58;;;;;;;6.32;2.80;;;;;;;8.86;79.48;98944.38;5051299;28;20109;-44
2023/10/20 07:07:24;;;;;;;4.07;2.10;;;;;;;8.86;78.93;98943.53;5066813;28;20052;-46
2023/10/20 07:09:50;;;;;;;4.32;2.03;;;;;;;8.76;78.70;98942.19;5067790;28;20037;-44
2023/10/20 07:12:16;;;;;;;3.92;2.13;;;;;;;8.72;78.25;98948.41;5083466;28;20101;-44
2023/10/20 07:14:43;;;;;;;4.25;2.05;;;;;;;8.75;78.41;98946.53;5050730;28;20036;-46
2023/10/20 07:17:11;;;;;;;4.10;1.90;;;;;;;8.82;77.77;98942.81;5069309;28;20047;-43
2023/10/20 07:19:38;;;;;;;4.88;2.20;;;;;;;8.97;77.30;98951.72;5064373;28;20543;-44
2023/10/20 07:22:04;;;;;;;3.95;1.55;;;;;;;9.15;77.18;98950.16;5070506;28;20094;-45
2023/10/20 07:24:31;;;;;;;4.43;1.70;;;;;;;9.25;76.13;98956.66;5069560;28;20032;-49
2023/10/20 07:26:57;;;;;;;3.30;1.33;;;;;;;9.05;75.67;98934.13;5051612;28;20139;-43
2023/10/20 07:29:24;;;;;;;3.47;1.80;;;;;;;9.23;75.08;98961.06;5049541;28;20480;-45
2023/10/20 07:31:51;;;;;;;4.45;2.33;;;;;;;9.20;74.82;98962.03;5067268;28;20396;-47
2023/10/20 07:34:17;;;;;;;2.67;1.73;;;;;;;9.09;74.86;98964.22;5067738;28;20051;-43
2023/10/20 07:36:45;;;;;;;8.02;2.17;;;;;;;9.07;75.05;98975.53;5065245;28;20094;-44
2023/10/20 07:39:16;;;;;;;4.22;2.10;;;;;;;9.07;75.24;98981.56;5066746;28;20792;-44
2023/10/20 07:41:44;;;;;;;3.58;1.95;;;;;;;9.06;75.51;98987.66;5066882;28;20036;-45
2023/10/20 07:44:12;;;;;;;3.47;1.98;;;;;;;9.04;75.55;98981.72;5063850;28;20147;-44
2023/10/20 07:46:42;;;;;;;4.97;2.70;;;;;;;9.05;76.05;98992.94;5068589;28;20036;-46
2023/10/20 07:49:11;;;;;;;6.32;3.80;;;;;;;9.11;75.61;98995.25;5032360;28;20078;-44
2023/10/20 07:51:40;;;;;;;5.15;3.03;;;;;;;9.03;75.84;98990.38;5052375;28;20423;-46
2023/10/20 07:54:10;;;;;;;4.72;2.85;;;;;;;9.02;76.30;98987.84;5068602;28;20040;-45
2023/10/20 07:56:36;;;;;;;;;;;;;;;9.08;76.42;98982.41;5065894;28;20546;-45
2023/10/20 07:59:03;;;;;;;5.93;2.70;;;;;;;9.06;76.41;98982.47;5063851;28;19923;-44
2023/10/20 08:01:29;;;;;;;4.50;2.85;;;;;;;8.89;77.11;98953.78;5065355;28;20467;-47
2023/10/20 08:03:55;;;;;;;5.47;3.05;;;;;;;8.93;77.32;98961.38;5063012;28;20068;-44
2023/10/20 08:06:22;;;;;;;5.28;3.00;;;;;;;9.01;77.71;98979.22;5057954;28;20412;-44
2023/10/20 08:08:49;;;;;;;5.82;3.22;;;;;;;9.00;77.49;98982.75;5063522;28;20040;-45
2023/10/20 08:11:16;;;;;;;5.43;3.20;;;;;;;9.02;77.72;98980.06;5061132;28;20040;-46
2023/10/20 08:13:42;;;;;;;5.60;3.20;;;;;;;9.03;77.52;98968.78;5047658;28;20459;-45
2023/10/20 08:16:08;;;;;;;8.02;3.50;;;;;;;9.06;77.43;98979.03;5065358;28;20052;-43
2023/10/20 08:18:34;;;;;;;6.18;3.42;;;;;;;9.04;77.64;98976.53;5066581;28;20506;-45
2023/10/20 08:21:07;;;;;;;5.95;3.70;;;;;;;9.05;77.75;98975.63;5081271;28;20128;-46
2023/10/20 08:23:34;;;;;;;7.25;3.78;;;;;;;9.09;77.75;98979.78;5047781;28;20468;-47
2023/10/20 08:26:00;;;;;;;6.18;3.53;;;;;;;9.16;77.63;98980.38;5067159;28;20051;-48
2023/10/20 08:28:26;;;;;;;5.35;3.28;;;;;;;8.97;77.23;98956.06;5061730;28;20476;-43
2023/10/20 08:31:04;;;;;;;6.47;4.03;;;;;;;9.09;76.81;98987.56;5065085;28;20149;-44
2023/10/20 08:33:30;;;;;;;6.38;3.60;;;;;;;8.93;76.97;98963.97;5062232;28;20094;-48
2023/10/20 08:35:56;;;;;;;6.72;3.70;;;;;;;9.15;76.59;98992.50;5060778;28;20866;-46
2023/10/20 08:38:22;;;;;;;6.47;3.58;;;;;;;9.19;76.46;98985.44;5061732;28;20142;-44
2023/10/20 08:40:48;;;;;;;7.28;3.38;;;;;;;9.16;76.47;98988.16;5048020;28;20064;-44
2023/10/20 08:43:14;;;;;;;5.53;3.50;;;;;;;8.98;76.23;98968.97;5064787;28;20039;-45
2023/10/20 08:45:40;;;;;;;8.57;4.18;;;;;;;8.95;76.24;98968.25;5067789;28;20079;-45
2023/10/20 08:48:08;;;;;;;7.75;5.05;;;;;;;9.04;76.18;98996.41;5058888;28;20086;-45
2023/10/20 08:50:35;;;;;;;8.52;4.90;;;;;;;9.06;76.33;98999.78;5062959;28;20051;-48
2023/10/20 08:53:04;;;;;;;7.82;4.28;;;;;;;9.00;76.33;98998.28;5064468;28;20419;-45
2023/10/20 08:55:31;;;;;;;9.85;4.40;;;;;;;8.99;76.11;98996.59;5050843;28;20104;-46
2023/10/20 08:57:56;;;;;;;8.45;4.60;;;;;;;9.09;75.74;99007.44;5067224;28;20508;-45
2023/10/20 09:00:22;;;;;;;7.15;4.25;;;;;;;9.07;75.69;98999.72;5067355;28;20051;-42
2023/10/20 09:02:49;;;;;;;8.75;4.90;;;;;;;9.09;76.22;99010.03;5066378;28;20557;-49
2023/10/20 09:05:24;;;;;;;8.93;4.63;;;;;;;9.07;75.59;99001.47;5063073;28;20056;-46
2023/10/20 09:07:53;;;;;;;10.38;5.03;;;;;;;9.05;76.13;99005.88;5067108;28;20067;-43
2023/10/20 09:10:19;;;;;;;;;;;;;;;9.02;76.25;99003.41;5067614;28;20036;-47
2023/10/20 09:12:45;;;;;;;8.70;4.53;;;;;;;8.98;76.17;99014.81;5082288;28;19939;-45
2023/10/20 09:15:11;;;;;;;10.75;5.25;;;;;;;8.92;76.64;99010.69;5065405;28;20039;-47
2023/10/20 09:17:37;;;;;;;14.15;5.35;;;;;;;8.89;76.68;99014.25;5066736;28;20048;-45
2023/10/20 09:20:11;;;;;;;9.50;5.47;;;;;;;8.75;76.43;98997.53;5065763;28;20090;-48
2023/10/20 09:22:41;;;;;;;9.15;5.70;;;;;;;8.84;76.78;99018.78;5064241;28;20503;-50
2023/10/20 09:25:11;;;;;;;14.63;8.32;;;;;;;8.80;77.03;99021.50;5048032;28;20064;-46
2023/10/20 09:27:40;;;;;;;8.43;5.43;;;;;;;8.78;77.08;99023.34;5065546;28;20040;-48
2023/10/20 09:30:10;;;;;;;10.50;5.10;;;;;;;8.49;77.03;98988.97;5066935;28;20048;-49
2023/10/20 09:32:38;;;;;;;8.98;4.78;;;;;;;8.70;77.53;99023.63;5063954;28;20120;-45
2023/10/20 09:35:04;;;;;;;8.13;5.10;;;;;;;8.73;77.70;99017.47;5065536;28;20044;-45
2023/10/20 09:37:31;;;;;;;10.55;5.57;;;;;;;8.71;77.23;99021.88;5046922;28;20047;-47
2023/10/20 09:40:07;;;;;;;8.65;5.07;;;;;;;8.78;77.48;99020.75;5063725;28;20041;-50
2023/10/20 09:42:58;;;;;;;8.60;5.50;;;;;;;8.80;77.48;99017.19;5053098;28;20040;-44
2023/10/20 09:45:32;;;;;;;10.73;6.15;;;;;;;8.84;77.13;99023.97;5066812;28;20037;-45
2023/10/20 09:48:01;;;;;;;9.07;4.85;;;;;;;8.71;77.19;98993.38;5082170;28;20537;-45
2023/10/20 09:50:31;;;;;;;10.00;4.93;;;;;;;8.79;77.38;99001.72;5052195;28;20733;-46
2023/10/20 09:52:59;;;;;;;7.95;4.95;;;;;;;8.96;77.29;99019.19;5056200;28;20137;-50
2023/10/20 09:55:26;;;;;;;9.50;5.60;;;;;;;9.00;77.42;99016.44;5063866;28;20043;-49
2023/10/20 09:57:52;;;;;;;7.45;4.57;;;;;;;9.06;77.24;99020.50;5065924;28;20041;-48
2023/10/20 10:00:31;;;;;;;6.97;4.38;;;;;;;8.99;76.35;98995.75;5056611;28;20051;-47
2023/10/20 10:02:59;;;;;;;7.30;4.38;;;;;;;9.19;76.46;99014.81;5051822;28;20044;-46
2023/10/20 10:05:25;;;;;;;9.30;5.35;;;;;;;9.20;76.14;99020.84;5070011;28;20047;-45
2023/10/20 10:08:07;;;;;;;9.65;4.82;;;;;;;8.78;75.68;98963.72;5068688;28;20044;-49
2023/10/20 10:10:37;;;;;;;9.82;4.95;;;;;;;8.95;75.48;98986.41;5066900;28;20458;-45
2023/10/20 10:13:07;;;;;;;7.25;4.65;;;;;;;9.07;75.44;99017.03;5065068;28;20052;-46
2023/10/20 10:15:46;;;;;;;9.80;5.85;;;;;;;9.07;75.33;99011.84;5068359;28;20047;-48
2023/10/20 10:18:13;;;;;;;5.95;4.10;;;;;;;8.82;75.38;98970.47;5085654;28;20048;-44
2023/10/20 10:20:46;;;;;;;7.65;4.45;;;;;;;9.12;75.16;99020.28;5052886;28;20033;-45
2023/10/20 10:23:12;;;;;;;6.68;4.25;;;;;;;9.18;74.88;99007.94;5067722;28;20078;-47
2023/10/20 10:25:41;;;;;;;8.15;4.65;;;;;;;9.19;74.66;99013.97;5068724;28;20044;-41
2023/10/20 10:28:18;;;;;;;7.45;4.13;;;;;;;9.21;74.59;99006.97;5070375;28;20075;-45
2023/10/20 10:30:46;;;;;;;7.38;4.70;;;;;;;9.22;74.50;99013.81;5069829;28;20040;-44
2023/10/20 10:33:12;;;;;;;7.63;4.05;;;;;;;9.19;74.15;99022.59;5066879;28;20134;-45
2023/10/20 10:35:39;;;;;;;8.20;4.60;;;;;;;9.12;74.07;99012.50;5067041;28;20044;-46
2023/10/20 10:38:28;;;;;;;7.53;4.68;;;;;;;9.06;74.26;99016.19;5068543;28;20450;-44
2023/10/20 10:40:55;;;;;;;7.75;4.85;;;;;;;9.07;73.94;99032.59;5067232;28;20032;-49
2023/10/20 10:43:21;;;;;;;6.95;4.35;;;;;;;8.92;74.07;99032.28;5045443;28;20054;-44
2023/10/20 10:45:54;;;;;;;8.73;5.82;;;;;;;8.90;74.22;99034.06;5065498;28;20434;-44
2023/10/20 10:48:24;;;;;;;9.73;5.28;;;;;;;8.91;74.71;99025.41;5068291;28;20127;-46
2023/10/20 10:50:50;;;;;;;;;;;;;;;8.98;74.34;99032.94;5049498;28;20043;-44
2023/10/20 10:53:16;;;;;;;6.60;4.07;;;;;;;8.97;74.15;99024.31;5066683;28;19924;-44
2023/10/20 10:55:43;;;;;;;8.82;4.47;;;;;;;8.91;74.38;99032.31;5063916;28;20036;-44
2023/10/20 10:58:14;;;;;;;10.13;4.53;;;;;;;8.89;74.52;99031.56;5066503;28;20101;-45
2023/10/20 11:00:41;;;;;;;8.20;5.00;;;;;;;8.88;74.40;99035.03;5060852;28;20037;-44
2023/10/20 11:03:08;;;;;;;8.52;4.80;;;;;;;8.85;74.25;99036.00;5064203;28;20135;-44
2023/10/20 11:05:34;;;;;;;7.43;4.45;;;;;;;8.86;74.18;99037.69;5066075;28;20075;-44
2023/10/20 11:08:03;;;;;;;9.10;4.28;;;;;;;8.87;74.87;99041.13;5065737;28;20139;-44
2023/10/20 11:10:32;;;;;;;7.45;4.65;;;;;;;8.86;74.86;99037.69;5065735;28;20047;-45
2023/10/20 11:12:58;;;;;;;7.53;3.95;;;;;;;8.84;75.22;99038.66;5048889;28;20056;-45
2023/10/20 11:15:30;;;;;;;6.80;4.70;;;;;;;8.80;75.53;99040.50;5067834;28;20096;-45
2023/10/20 11:17:58;;;;;;;8.48;4.65;;;;;;;8.78;75.69;99037.16;5079471;28;20487;-44
2023/10/20 11:20:24;;;;;;;7.82;4.50;;;;;;;8.66;76.09;99006.50;5050417;28;20094;-47
2023/10/20 11:22:57;;;;;;;6.53;4.10;;;;;;;8.84;76.19;99039.50;5060185;28;20131;-47
2023/10/20 11:25:24;;;;;;;7.03;4.38;;;;;;;8.86;76.19;99035.09;5078426;28;20056;-47
2023/10/20 11:27:54;;;;;;;7.95;4.50;;;;;;;8.92;75.56;99040.06;5040253;28;20466;-44
2023/10/20 11:30:28;;;;;;;8.48;5.13;;;;;;;8.71;75.93;98993.38;5064281;28;20443;-44
2023/10/20 11:32:55;;;;;;;7.50;4.30;;;;;;;9.01;75.80;99040.59;5068360;28;20044;-44
2023/10/20 11:35:21;;;;;;;10.05;5.15;;;;;;;8.88;75.51;99014.31;5066042;28;20404;-47
2023/10/20 11:37:57;;;;;;;7.63;4.85;;;;;;;9.06;75.32;99034.31;5064495;28;20067;-45
2023/10/20 11:40:24;;;;;;;9.00;5.13;;;;;;;9.12;75.10;99035.84;5064968;28;20083;-55
2023/10/20 11:42:50;;;;;;;7.82;5.00;;;;;;;8.99;75.20;99011.31;5051243;28;20150;-44
2023/10/20 11:45:16;;;;;;;7.30;4.65;;;;;;;9.18;75.26;99030.41;5043153;28;20579;-43
2023/10/20 11:47:43;;;;;;;7.05;4.65;;;;;;;9.21;74.43;99033.72;5046259;28;20786;-44
2023/10/20 11:50:10;;;;;;;11.10;4.95;;;;;;;9.24;74.36;99035.38;5049769;28;20064;-43
2023/10/20 11:52:38;;;;;;;8.20;4.70;;;;;;;9.21;74.21;99033.72;5065141;28;20048;-43
2023/10/20 11:55:05;;;;;;;7.88;4.20;;;;;;;9.06;74.77;99016.19;5062081;28;20744;-42
2023/10/20 11:57:31;;;;;;;6.78;4.57;;;;;;;9.13;74.59;99046.16;5059347;28;20444;-45
2023/10/20 11:59:57;;;;;;;7.70;4.25;;;;;;;9.10;74.49;99038.50;5062151;28;20083;-42
2023/10/20 12:02:23;;;;;;;6.28;4.00;;;;;;;9.03;74.80;99046.56;5066106;28;20072;-43
2023/10/20 12:04:49;;;;;;;8.35;4.80;;;;;;;8.98;74.96;99043.31;5065672;28;20040;-42
2023/10/20 12:07:15;;;;;;;7.55;4.80;;;;;;;8.91;75.08;99040.94;5057769;28;20083;-42
2023/10/20 12:09:41;;;;;;;8.25;4.88;;;;;;;8.85;74.72;99045.50;5062280;28;20051;-43
2023/10/20 12:12:08;;;;;;;8.38;4.93;;;;;;;8.85;75.10;99041.19;5064652;28;20084;-43
2023/10/20 12:14:34;;;;;;;7.38;4.70;;;;;;;8.86;75.13;99042.88;5061879;28;20526;-44